sensor_id;sensor_type;location;lat;lon;timestamp;pressure;altitude;pressure_sealevel;temperature;humidity
32875;BME280;40468;42.128;24.750;2024-02-14T00:00:19;99305.50;;;9.13;72.18
32875;BME280;40468;42.128;24.750;2024-02-14T00:01:51;99306.44;;;9.12;72.05
32875;BME280;40468;42.128;24.750;2024-02-14T00:03:23;99303.00;;;9.11;72.21
32875;BME280;40468;42.128;24.750;2024-02-14T00:04:54;99291.81;;;9.09;72.19
32875;BME280;40468;42.128;24.750;2024-02-14T00:06:25;99309.81;;;9.14;72.23
32875;BME280;40468;42.128;24.750;2024-02-14T00:07:56;99314.09;;;9.15;72.16
32875;BME280;40468;42.128;24.750;2024-02-14T00:09:28;99315.75;;;9.16;71.83
32875;BME280;40468;42.128;24.750;2024-02-14T00:10:59;99299.81;;;9.05;71.94
32875;BME280;40468;42.128;24.750;2024-02-14T00:12:31;99314.91;;;9.16;71.88
32875;BME280;40468;42.128;24.750;2024-02-14T00:14:01;99320.13;;;9.16;71.65
32875;BME280;40468;42.128;24.750;2024-02-14T00:15:35;99312.25;;;9.17;71.53
32875;BME280;40468;42.128;24.750;2024-02-14T00:17:06;99318.34;;;9.16;71.58
32875;BME280;40468;42.128;24.750;2024-02-14T00:18:40;99323.53;;;9.16;71.49
32875;BME280;40468;42.128;24.750;2024-02-14T00:20:11;99321.78;;;9.17;71.42
32875;BME280;40468;42.128;24.750;2024-02-14T00:21:43;99315.75;;;9.16;71.55
32875;BME280;40468;42.128;24.750;2024-02-14T00:23:14;99320.94;;;9.16;71.54
32875;BME280;40468;42.128;24.750;2024-02-14T00:24:45;99323.53;;;9.16;71.39
32875;BME280;40468;42.128;24.750;2024-02-14T00:26:16;99334.84;;;9.15;71.57
32875;BME280;40468;42.128;24.750;2024-02-14T00:27:48;99321.94;;;9.14;71.38
32875;BME280;40468;42.128;24.750;2024-02-14T00:29:20;99323.78;;;9.11;70.95
32875;BME280;40468;42.128;24.750;2024-02-14T00:30:53;99328.75;;;9.16;71.36
32875;BME280;40468;42.128;24.750;2024-02-14T00:32:23;99329.66;;;9.15;70.96
32875;BME280;40468;42.128;24.750;2024-02-14T00:33:55;99330.50;;;9.16;70.91
32875;BME280;40468;42.128;24.750;2024-02-14T00:35:26;99326.22;;;9.15;70.72
32875;BME280;40468;42.128;24.750;2024-02-14T00:36:58;99334.72;;;9.18;70.97
32875;BME280;40468;42.128;24.750;2024-02-14T00:38:29;99327.84;;;9.17;70.54
32875;BME280;40468;42.128;24.750;2024-02-14T00:40:01;99226.03;;;8.54;70.77
32875;BME280;40468;42.128;24.750;2024-02-14T00:41:32;99328.59;;;9.19;70.69
32875;BME280;40468;42.128;24.750;2024-02-14T00:43:04;99281.38;;;8.92;70.36
32875;BME280;40468;42.128;24.750;2024-02-14T00:44:35;99333.72;;;9.21;70.45
32875;BME280;40468;42.128;24.750;2024-02-14T00:46:08;99320.66;;;9.22;70.35
32875;BME280;40468;42.128;24.750;2024-02-14T00:47:39;99316.72;;;9.14;70.46
32875;BME280;40468;42.128;24.750;2024-02-14T00:49:11;99326.00;;;9.19;70.18
32875;BME280;40468;42.128;24.750;2024-02-14T00:50:43;99332.91;;;9.20;70.42
32875;BME280;40468;42.128;24.750;2024-02-14T00:52:15;99332.13;;;9.18;70.53
32875;BME280;40468;42.128;24.750;2024-02-14T00:53:47;99324.31;;;9.18;70.26
32875;BME280;40468;42.128;24.750;2024-02-14T00:55:18;99320.06;;;9.17;70.36
32875;BME280;40468;42.128;24.750;2024-02-14T00:56:50;99333.03;;;9.17;70.29
32875;BME280;40468;42.128;24.750;2024-02-14T00:58:21;99329.66;;;9.15;70.74
32875;BME280;40468;42.128;24.750;2024-02-14T00:59:53;99332.31;;;9.14;70.49
32875;BME280;40468;42.128;24.750;2024-02-14T01:01:27;99328.75;;;9.16;70.79
32875;BME280;40468;42.128;24.750;2024-02-14T01:02:58;99329.03;;;9.10;71.01
32875;BME280;40468;42.128;24.750;2024-02-14T01:04:30;99330.59;;;9.14;71.10
32875;BME280;40468;42.128;24.750;2024-02-14T01:06:01;99334.09;;;9.13;71.25
32875;BME280;40468;42.128;24.750;2024-02-14T01:07:34;99329.03;;;9.10;71.27
32875;BME280;40468;42.128;24.750;2024-02-14T01:09:04;99329.94;;;9.09;71.12
32875;BME280;40468;42.128;24.750;2024-02-14T01:10:36;99335.16;;;9.09;71.09
32875;BME280;40468;42.128;24.750;2024-02-14T01:12:07;99326.53;;;9.08;71.50
32875;BME280;40468;42.128;24.750;2024-02-14T01:13:39;99339.50;;;9.08;71.50
32875;BME280;40468;42.128;24.750;2024-02-14T01:15:11;99329.13;;;9.08;71.33
32875;BME280;40468;42.128;24.750;2024-02-14T01:16:45;99332.75;;;9.04;71.46
32875;BME280;40468;42.128;24.750;2024-02-14T01:18:17;99336.13;;;9.06;71.46
32875;BME280;40468;42.128;24.750;2024-02-14T01:19:48;99332.59;;;9.07;71.37
32875;BME280;40468;42.128;24.750;2024-02-14T01:21:20;99333.53;;;9.06;71.56
32875;BME280;40468;42.128;24.750;2024-02-14T01:22:51;99319.31;;;8.96;71.55
32875;BME280;40468;42.128;24.750;2024-02-14T01:24:23;99327.66;;;9.03;71.45
32875;BME280;40468;42.128;24.750;2024-02-14T01:25:57;99321.66;;;9.01;71.40
32875;BME280;40468;42.128;24.750;2024-02-14T01:27:29;99335.28;;;9.06;71.54
32875;BME280;40468;42.128;24.750;2024-02-14T01:28:59;99332.91;;;9.01;71.79
32875;BME280;40468;42.128;24.750;2024-02-14T01:30:32;99338.72;;;9.06;71.49
32875;BME280;40468;42.128;24.750;2024-02-14T01:32:05;99316.75;;;8.95;71.34
32875;BME280;40468;42.128;24.750;2024-02-14T01:33:37;99319.41;;;8.93;71.28
32875;BME280;40468;42.128;24.750;2024-02-14T01:35:09;99338.78;;;9.05;71.22
32875;BME280;40468;42.128;24.750;2024-02-14T01:36:40;99345.69;;;9.06;70.98
32875;BME280;40468;42.128;24.750;2024-02-14T01:38:11;99339.56;;;9.07;70.88
32875;BME280;40468;42.128;24.750;2024-02-14T01:39:43;99345.69;;;9.06;71.01
32875;BME280;40468;42.128;24.750;2024-02-14T01:41:15;99338.94;;;9.02;70.76
32875;BME280;40468;42.128;24.750;2024-02-14T01:42:47;99336.13;;;9.06;70.57
32875;BME280;40468;42.128;24.750;2024-02-14T01:44:18;99338.78;;;9.05;70.88
32875;BME280;40468;42.128;24.750;2024-02-14T01:45:51;99342.31;;;9.04;70.64
32875;BME280;40468;42.128;24.750;2024-02-14T01:47:23;99343.13;;;9.04;70.59
32875;BME280;40468;42.128;24.750;2024-02-14T01:48:55;99249.78;;;8.46;70.53
32875;BME280;40468;42.128;24.750;2024-02-14T01:50:27;99338.94;;;9.02;70.46
32875;BME280;40468;42.128;24.750;2024-02-14T01:52:02;99335.44;;;9.03;70.37
32875;BME280;40468;42.128;24.750;2024-02-14T01:53:34;99339.84;;;9.01;70.48
32875;BME280;40468;42.128;24.750;2024-02-14T01:55:08;99344.06;;;9.03;70.45
32875;BME280;40468;42.128;24.750;2024-02-14T01:56:39;99341.31;;;9.06;70.12
32875;BME280;40468;42.128;24.750;2024-02-14T01:58:11;99344.84;;;9.05;70.05
32875;BME280;40468;42.128;24.750;2024-02-14T01:59:43;99349.16;;;9.05;69.92
32875;BME280;40468;42.128;24.750;2024-02-14T02:01:23;99349.25;;;9.03;69.98
32875;BME280;40468;42.128;24.750;2024-02-14T02:02:57;99346.66;;;9.03;69.76
32875;BME280;40468;42.128;24.750;2024-02-14T02:04:28;99353.66;;;9.01;69.72
32875;BME280;40468;42.128;24.750;2024-02-14T02:06:00;99347.50;;;9.04;69.68
32875;BME280;40468;42.128;24.750;2024-02-14T02:07:32;99358.03;;;9.01;69.56
32875;BME280;40468;42.128;24.750;2024-02-14T02:09:04;99355.28;;;9.04;69.31
32875;BME280;40468;42.128;24.750;2024-02-14T02:10:35;99355.22;;;9.05;69.61
32875;BME280;40468;42.128;24.750;2024-02-14T02:12:08;99365.63;;;9.05;69.17
32875;BME280;40468;42.128;24.750;2024-02-14T02:13:38;99356.06;;;9.06;69.34
32875;BME280;40468;42.128;24.750;2024-02-14T02:15:11;99354.50;;;9.02;69.21
32875;BME280;40468;42.128;24.750;2024-02-14T02:16:43;99363.03;;;9.05;69.30
32875;BME280;40468;42.128;24.750;2024-02-14T02:18:18;99356.91;;;9.06;69.00
32875;BME280;40468;42.128;24.750;2024-02-14T02:19:49;99356.63;;;8.94;69.08
32875;BME280;40468;42.128;24.750;2024-02-14T02:21:20;99364.28;;;8.97;69.21
32875;BME280;40468;42.128;24.750;2024-02-14T02:22:55;99362.38;;;9.00;69.10
32875;BME280;40468;42.128;24.750;2024-02-14T02:24:25;99365.75;;;9.02;69.02
32875;BME280;40468;42.128;24.750;2024-02-14T02:25:57;99372.53;;;9.05;68.99
32875;BME280;40468;42.128;24.750;2024-02-14T02:27:29;99368.13;;;9.07;68.75
32875;BME280;40468;42.128;24.750;2024-02-14T02:29:00;99368.13;;;9.07;68.79
32875;BME280;40468;42.128;24.750;2024-02-14T02:30:32;99374.13;;;9.09;68.74
32875;BME280;40468;42.128;24.750;2024-02-14T02:32:05;99370.47;;;8.94;69.12
32875;BME280;40468;42.128;24.750;2024-02-14T02:33:36;99388.41;;;8.99;68.86
32875;BME280;40468;42.128;24.750;2024-02-14T02:35:08;99373.56;;;9.02;69.06
32875;BME280;40468;42.128;24.750;2024-02-14T02:36:40;99382.88;;;9.06;68.92
32875;BME280;40468;42.128;24.750;2024-02-14T02:38:13;99381.06;;;9.08;68.76
32875;BME280;40468;42.128;24.750;2024-02-14T02:39:44;99387.00;;;9.10;69.14
32875;BME280;40468;42.128;24.750;2024-02-14T02:41:16;99390.47;;;9.11;68.88
32875;BME280;40468;42.128;24.750;2024-02-14T02:42:47;99387.09;;;9.09;69.26
32875;BME280;40468;42.128;24.750;2024-02-14T02:44:20;99385.41;;;9.08;69.58
32875;BME280;40468;42.128;24.750;2024-02-14T02:45:51;99386.25;;;9.08;69.72
32875;BME280;40468;42.128;24.750;2024-02-14T02:47:23;99391.47;;;9.08;69.52
32875;BME280;40468;42.128;24.750;2024-02-14T02:48:54;99392.34;;;9.07;69.83
32875;BME280;40468;42.128;24.750;2024-02-14T02:50:27;99393.00;;;8.94;69.88
32875;BME280;40468;42.128;24.750;2024-02-14T02:51:58;99393.69;;;8.97;70.06
32875;BME280;40468;42.128;24.750;2024-02-14T02:53:31;99397.00;;;9.01;70.20
32875;BME280;40468;42.128;24.750;2024-02-14T02:55:02;99394.38;;;9.01;70.01
32875;BME280;40468;42.128;24.750;2024-02-14T02:56:35;99404.72;;;9.02;70.24
32875;BME280;40468;42.128;24.750;2024-02-14T02:58:06;99398.66;;;9.02;69.91
32875;BME280;40468;42.128;24.750;2024-02-14T02:59:38;99402.13;;;9.02;70.24
32875;BME280;40468;42.128;24.750;2024-02-14T03:01:13;99409.97;;;9.01;70.10
32875;BME280;40468;42.128;24.750;2024-02-14T03:02:45;99403.84;;;9.02;70.08
32875;BME280;40468;42.128;24.750;2024-02-14T03:04:15;99405.69;;;9.00;70.13
32875;BME280;40468;42.128;24.750;2024-02-14T03:05:47;99413.50;;;9.00;69.90
32875;BME280;40468;42.128;24.750;2024-02-14T03:07:19;99405.84;;;8.97;69.93
32875;BME280;40468;42.128;24.750;2024-02-14T03:08:52;99411.66;;;9.02;69.78
32875;BME280;40468;42.128;24.750;2024-02-14T03:10:26;99319.84;;;8.46;69.54
32875;BME280;40468;42.128;24.750;2024-02-14T03:11:59;99417.75;;;9.01;69.77
32875;BME280;40468;42.128;24.750;2024-02-14T03:13:30;99420.22;;;9.04;69.66
32875;BME280;40468;42.128;24.750;2024-02-14T03:15:03;99410.75;;;9.03;69.32
32875;BME280;40468;42.128;24.750;2024-02-14T03:16:35;99422.03;;;9.02;69.45
32875;BME280;40468;42.128;24.750;2024-02-14T03:18:07;99416.22;;;8.97;69.34
32875;BME280;40468;42.128;24.750;2024-02-14T03:19:40;99425.56;;;9.01;69.59
32875;BME280;40468;42.128;24.750;2024-02-14T03:21:11;99432.44;;;9.02;69.52
32875;BME280;40468;42.128;24.750;2024-02-14T03:22:43;99430.06;;;8.97;69.52
32875;BME280;40468;42.128;24.750;2024-02-14T03:24:16;99431.59;;;9.01;69.49
32875;BME280;40468;42.128;24.750;2024-02-14T03:25:48;99430.75;;;9.01;69.17
32875;BME280;40468;42.128;24.750;2024-02-14T03:27:21;99414.03;;;8.87;69.12
32875;BME280;40468;42.128;24.750;2024-02-14T03:28:53;99436.03;;;8.99;69.25
32875;BME280;40468;42.128;24.750;2024-02-14T03:30:25;99438.63;;;8.99;68.95
32875;BME280;40468;42.128;24.750;2024-02-14T03:32:00;99434.53;;;8.94;69.34
32875;BME280;40468;42.128;24.750;2024-02-14T03:33:34;99439.53;;;8.98;69.26
32875;BME280;40468;42.128;24.750;2024-02-14T03:35:06;99440.50;;;8.96;69.28
32875;BME280;40468;42.128;24.750;2024-02-14T03:36:37;99442.94;;;8.99;69.07
32875;BME280;40468;42.128;24.750;2024-02-14T03:38:09;99440.44;;;8.97;69.05
32875;BME280;40468;42.128;24.750;2024-02-14T03:39:42;99442.19;;;8.97;69.15
32875;BME280;40468;42.128;24.750;2024-02-14T03:41:16;99448.22;;;8.97;69.18
32875;BME280;40468;42.128;24.750;2024-02-14T03:42:47;99441.28;;;8.98;69.17
32875;BME280;40468;42.128;24.750;2024-02-14T03:44:19;99436.28;;;8.93;69.16
32875;BME280;40468;42.128;24.750;2024-02-14T03:45:50;99438.75;;;8.96;69.21
32875;BME280;40468;42.128;24.750;2024-02-14T03:47:22;99438.03;;;8.93;69.08
32875;BME280;40468;42.128;24.750;2024-02-14T03:48:53;99447.41;;;8.97;69.40
32875;BME280;40468;42.128;24.750;2024-02-14T03:50:25;99440.56;;;8.94;69.04
32875;BME280;40468;42.128;24.750;2024-02-14T03:51:56;99450.03;;;8.95;68.98
32875;BME280;40468;42.128;24.750;2024-02-14T03:53:27;99445.00;;;8.92;69.08
32875;BME280;40468;42.128;24.750;2024-02-14T03:55:00;99456.03;;;8.97;69.05
32875;BME280;40468;42.128;24.750;2024-02-14T03:56:33;99451.03;;;8.93;68.93
32875;BME280;40468;42.128;24.750;2024-02-14T03:58:03;99458.63;;;8.97;69.07
32875;BME280;40468;42.128;24.750;2024-02-14T03:59:37;99462.97;;;8.97;69.04
32875;BME280;40468;42.128;24.750;2024-02-14T04:01:09;99461.34;;;8.94;68.96
32875;BME280;40468;42.128;24.750;2024-02-14T04:02:41;99458.94;;;8.89;68.97
32875;BME280;40468;42.128;24.750;2024-02-14T04:04:12;99470.78;;;8.97;68.75
32875;BME280;40468;42.128;24.750;2024-02-14T04:05:44;99467.25;;;8.98;68.93
32875;BME280;40468;42.128;24.750;2024-02-14T04:07:15;99470.63;;;9.00;69.11
32875;BME280;40468;42.128;24.750;2024-02-14T04:08:46;99480.19;;;8.99;69.06
32875;BME280;40468;42.128;24.750;2024-02-14T04:10:19;99462.06;;;8.98;68.77
32875;BME280;40468;42.128;24.750;2024-02-14T04:11:50;99466.31;;;8.99;68.83
32875;BME280;40468;42.128;24.750;2024-02-14T04:13:21;99479.31;;;8.99;68.81
32875;BME280;40468;42.128;24.750;2024-02-14T04:14:53;99479.41;;;8.97;69.03
32875;BME280;40468;42.128;24.750;2024-02-14T04:16:24;99477.63;;;8.98;68.83
32875;BME280;40468;42.128;24.750;2024-02-14T04:17:57;99461.66;;;8.86;68.79
32875;BME280;40468;42.128;24.750;2024-02-14T04:19:28;99467.78;;;8.85;69.06
32875;BME280;40468;42.128;24.750;2024-02-14T04:21:00;99482.97;;;8.95;68.91
32875;BME280;40468;42.128;24.750;2024-02-14T04:22:31;99488.16;;;8.95;68.85
32875;BME280;40468;42.128;24.750;2024-02-14T04:24:03;99478.75;;;8.92;68.87
32875;BME280;40468;42.128;24.750;2024-02-14T04:25:36;99482.13;;;8.94;68.59
32875;BME280;40468;42.128;24.750;2024-02-14T04:27:07;99488.81;;;8.79;69.19
32875;BME280;40468;42.128;24.750;2024-02-14T04:28:38;99492.19;;;8.81;69.23
32875;BME280;40468;42.128;24.750;2024-02-14T04:30:12;99492.19;;;8.81;69.15
32875;BME280;40468;42.128;24.750;2024-02-14T04:31:43;99490.38;;;8.83;68.97
32875;BME280;40468;42.128;24.750;2024-02-14T04:33:15;99485.97;;;8.85;68.95
32875;BME280;40468;42.128;24.750;2024-02-14T04:34:46;99491.94;;;8.87;69.20
32875;BME280;40468;42.128;24.750;2024-02-14T04:36:19;99485.13;;;8.85;68.86
32875;BME280;40468;42.128;24.750;2024-02-14T04:37:50;99492.06;;;8.84;68.92
32875;BME280;40468;42.128;24.750;2024-02-14T04:39:23;99497.97;;;8.88;69.09
32875;BME280;40468;42.128;24.750;2024-02-14T04:40:56;99496.13;;;8.90;68.84
32875;BME280;40468;42.128;24.750;2024-02-14T04:42:28;99510.88;;;8.89;68.88
32875;BME280;40468;42.128;24.750;2024-02-14T04:44:00;99497.00;;;8.91;68.32
32875;BME280;40468;42.128;24.750;2024-02-14T04:45:31;99505.56;;;8.93;68.25
32875;BME280;40468;42.128;24.750;2024-02-14T04:47:03;99469.16;;;8.74;67.90
32875;BME280;40468;42.128;24.750;2024-02-14T04:48:34;99496.88;;;8.94;68.00
32875;BME280;40468;42.128;24.750;2024-02-14T04:50:06;99502.97;;;8.93;67.94
32875;BME280;40468;42.128;24.750;2024-02-14T04:51:37;99498.56;;;8.95;67.67
32875;BME280;40468;42.128;24.750;2024-02-14T04:53:09;99500.34;;;8.93;67.80
32875;BME280;40468;42.128;24.750;2024-02-14T04:54:40;99507.13;;;8.97;67.42
32875;BME280;40468;42.128;24.750;2024-02-14T04:56:13;99501.84;;;8.98;67.23
32875;BME280;40468;42.128;24.750;2024-02-14T04:57:44;99510.47;;;8.99;67.22
32875;BME280;40468;42.128;24.750;2024-02-14T04:59:16;99505.41;;;8.96;66.94
32875;BME280;40468;42.128;24.750;2024-02-14T05:00:46;99502.06;;;8.94;67.12
32875;BME280;40468;42.128;24.750;2024-02-14T05:02:18;99509.72;;;8.97;66.91
32875;BME280;40468;42.128;24.750;2024-02-14T05:03:49;99513.16;;;8.97;66.82
32875;BME280;40468;42.128;24.750;2024-02-14T05:05:21;99510.63;;;8.96;66.98
32875;BME280;40468;42.128;24.750;2024-02-14T05:06:52;99453.91;;;8.66;66.80
32875;BME280;40468;42.128;24.750;2024-02-14T05:08:23;99513.16;;;8.97;66.82
32875;BME280;40468;42.128;24.750;2024-02-14T05:09:56;99516.59;;;8.98;66.64
32875;BME280;40468;42.128;24.750;2024-02-14T05:11:28;99503.03;;;8.91;66.73
32875;BME280;40468;42.128;24.750;2024-02-14T05:13:00;99520.94;;;8.97;66.53
32875;BME280;40468;42.128;24.750;2024-02-14T05:14:31;99520.88;;;8.99;66.46
32875;BME280;40468;42.128;24.750;2024-02-14T05:16:03;99525.19;;;9.00;66.41
32875;BME280;40468;42.128;24.750;2024-02-14T05:17:34;99530.38;;;9.00;66.68
32875;BME280;40468;42.128;24.750;2024-02-14T05:19:06;99519.97;;;9.00;66.33
32875;BME280;40468;42.128;24.750;2024-02-14T05:20:37;99520.13;;;8.97;66.03
32875;BME280;40468;42.128;24.750;2024-02-14T05:22:09;99529.44;;;9.01;66.09
32875;BME280;40468;42.128;24.750;2024-02-14T05:23:40;99473.03;;;8.63;65.96
32875;BME280;40468;42.128;24.750;2024-02-14T05:25:12;99527.78;;;9.00;66.10
32875;BME280;40468;42.128;24.750;2024-02-14T05:26:44;99532.03;;;9.01;65.91
32875;BME280;40468;42.128;24.750;2024-02-14T05:28:16;99538.16;;;9.00;65.77
32875;BME280;40468;42.128;24.750;2024-02-14T05:29:49;99539.84;;;9.01;65.78
32875;BME280;40468;42.128;24.750;2024-02-14T05:31:21;99521.97;;;8.93;65.39
32875;BME280;40468;42.128;24.750;2024-02-14T05:32:52;99547.38;;;9.07;65.13
32875;BME280;40468;42.128;24.750;2024-02-14T05:34:24;99532.63;;;9.07;65.16
32875;BME280;40468;42.128;24.750;2024-02-14T05:35:55;99551.53;;;9.11;65.04
32875;BME280;40468;42.128;24.750;2024-02-14T05:37:26;99542.03;;;9.10;64.76
32875;BME280;40468;42.128;24.750;2024-02-14T05:38:58;99548.00;;;9.12;64.73
32875;BME280;40468;42.128;24.750;2024-02-14T05:40:29;99548.00;;;9.12;64.70
32875;BME280;40468;42.128;24.750;2024-02-14T05:42:02;99554.97;;;9.11;64.25
32875;BME280;40468;42.128;24.750;2024-02-14T05:43:35;99554.19;;;9.09;64.37
32875;BME280;40468;42.128;24.750;2024-02-14T05:45:06;99559.31;;;9.11;64.43
32875;BME280;40468;42.128;24.750;2024-02-14T05:46:40;99553.22;;;9.12;64.57
32875;BME280;40468;42.128;24.750;2024-02-14T05:48:11;99560.94;;;9.14;64.36
32875;BME280;40468;42.128;24.750;2024-02-14T05:49:43;99566.06;;;9.15;64.41
32875;BME280;40468;42.128;24.750;2024-02-14T05:51:14;99559.19;;;9.14;64.48
32875;BME280;40468;42.128;24.750;2024-02-14T05:52:46;99561.72;;;9.16;64.13
32875;BME280;40468;42.128;24.750;2024-02-14T05:54:17;99556.50;;;9.16;64.09
32875;BME280;40468;42.128;24.750;2024-02-14T05:55:50;99562.50;;;9.18;64.31
32875;BME280;40468;42.128;24.750;2024-02-14T05:57:23;99567.56;;;9.21;63.85
32875;BME280;40468;42.128;24.750;2024-02-14T05:58:54;99568.44;;;9.20;64.13
32875;BME280;40468;42.128;24.750;2024-02-14T06:00:26;99564.25;;;9.17;63.79
32875;BME280;40468;42.128;24.750;2024-02-14T06:01:57;99570.22;;;9.19;63.77
32875;BME280;40468;42.128;24.750;2024-02-14T06:03:29;99576.06;;;9.24;63.55
32875;BME280;40468;42.128;24.750;2024-02-14T06:04:59;99579.50;;;9.25;63.74
32875;BME280;40468;42.128;24.750;2024-02-14T06:06:31;99581.22;;;9.26;63.52
32875;BME280;40468;42.128;24.750;2024-02-14T06:08:02;99581.22;;;9.26;63.44
32875;BME280;40468;42.128;24.750;2024-02-14T06:09:34;99589.75;;;9.28;63.43
32875;BME280;40468;42.128;24.750;2024-02-14T06:11:05;99590.53;;;9.30;62.90
32875;BME280;40468;42.128;24.750;2024-02-14T06:12:38;99589.63;;;9.31;63.03
32875;BME280;40468;42.128;24.750;2024-02-14T06:14:11;99589.63;;;9.31;62.75
32875;BME280;40468;42.128;24.750;2024-02-14T06:15:43;99594.81;;;9.31;62.90
32875;BME280;40468;42.128;24.750;2024-02-14T06:17:14;99598.25;;;9.31;62.69
32875;BME280;40468;42.128;24.750;2024-02-14T06:18:46;99602.63;;;9.31;62.62
32875;BME280;40468;42.128;24.750;2024-02-14T06:20:17;99601.72;;;9.32;62.56
32875;BME280;40468;42.128;24.750;2024-02-14T06:21:49;99599.03;;;9.33;62.46
32875;BME280;40468;42.128;24.750;2024-02-14T06:23:20;99606.72;;;9.37;62.63
32875;BME280;40468;42.128;24.750;2024-02-14T06:24:52;99603.31;;;9.34;62.33
32875;BME280;40468;42.128;24.750;2024-02-14T06:26:23;99603.31;;;9.34;61.99
32875;BME280;40468;42.128;24.750;2024-02-14T06:27:56;99609.13;;;9.41;62.36
32875;BME280;40468;42.128;24.750;2024-02-14T06:29:28;99598.78;;;9.40;62.16
32875;BME280;40468;42.128;24.750;2024-02-14T06:30:58;99608.28;;;9.41;61.96
32875;BME280;40468;42.128;24.750;2024-02-14T06:32:31;99612.44;;;9.45;62.34
32875;BME280;40468;42.128;24.750;2024-02-14T06:34:02;99611.59;;;9.44;62.38
32875;BME280;40468;42.128;24.750;2024-02-14T06:35:33;99613.25;;;9.45;61.94
32875;BME280;40468;42.128;24.750;2024-02-14T06:37:04;99614.06;;;9.47;61.87
32875;BME280;40468;42.128;24.750;2024-02-14T06:38:36;99620.00;;;9.49;61.87
32875;BME280;40468;42.128;24.750;2024-02-14T06:40:08;99622.56;;;9.51;61.59
32875;BME280;40468;42.128;24.750;2024-02-14T06:41:40;99617.34;;;9.51;61.71
32875;BME280;40468;42.128;24.750;2024-02-14T06:43:13;99613.84;;;9.52;61.75
32875;BME280;40468;42.128;24.750;2024-02-14T06:44:45;99616.44;;;9.52;61.62
32875;BME280;40468;42.128;24.750;2024-02-14T06:46:16;99617.34;;;9.51;61.61
32875;BME280;40468;42.128;24.750;2024-02-14T06:47:47;99603.00;;;9.42;61.63
32875;BME280;40468;42.128;24.750;2024-02-14T06:49:18;99629.25;;;9.56;61.65
32875;BME280;40468;42.128;24.750;2024-02-14T06:50:50;99619.78;;;9.55;61.36
32875;BME280;40468;42.128;24.750;2024-02-14T06:52:21;99634.34;;;9.58;61.40
32875;BME280;40468;42.128;24.750;2024-02-14T06:53:53;99635.22;;;9.59;61.10
32875;BME280;40468;42.128;24.750;2024-02-14T06:55:25;99630.88;;;9.59;61.09
32875;BME280;40468;42.128;24.750;2024-02-14T06:56:56;99635.09;;;9.62;61.18
32875;BME280;40468;42.128;24.750;2024-02-14T06:58:29;99637.69;;;9.62;61.06
32875;BME280;40468;42.128;24.750;2024-02-14T07:00:01;99645.50;;;9.62;61.44
32875;BME280;40468;42.128;24.750;2024-02-14T07:01:35;99647.16;;;9.63;61.07
32875;BME280;40468;42.128;24.750;2024-02-14T07:03:07;99647.16;;;9.63;61.32
32875;BME280;40468;42.128;24.750;2024-02-14T07:04:38;99649.69;;;9.64;61.02
32875;BME280;40468;42.128;24.750;2024-02-14T07:06:10;99642.91;;;9.62;61.27
32875;BME280;40468;42.128;24.750;2024-02-14T07:07:40;99652.50;;;9.60;60.84
32875;BME280;40468;42.128;24.750;2024-02-14T07:09:12;99644.56;;;9.63;61.14
32875;BME280;40468;42.128;24.750;2024-02-14T07:10:43;99651.41;;;9.65;61.18
32875;BME280;40468;42.128;24.750;2024-02-14T07:12:15;99662.63;;;9.66;61.05
32875;BME280;40468;42.128;24.750;2024-02-14T07:13:48;99659.19;;;9.65;60.81
32875;BME280;40468;42.128;24.750;2024-02-14T07:15:19;99656.47;;;9.68;60.95
32875;BME280;40468;42.128;24.750;2024-02-14T07:16:51;99654.78;;;9.67;60.66
32875;BME280;40468;42.128;24.750;2024-02-14T07:18:22;99673.69;;;9.71;60.84
32875;BME280;40468;42.128;24.750;2024-02-14T07:19:54;99665.09;;;9.69;61.04
32875;BME280;40468;42.128;24.750;2024-02-14T07:21:25;99665.94;;;9.69;60.85
32875;BME280;40468;42.128;24.750;2024-02-14T07:22:57;99671.97;;;9.70;60.79
32875;BME280;40468;42.128;24.750;2024-02-14T07:24:27;99676.34;;;9.69;60.89
32875;BME280;40468;42.128;24.750;2024-02-14T07:26:00;99677.19;;;9.70;61.08
32875;BME280;40468;42.128;24.750;2024-02-14T07:27:31;99682.38;;;9.70;60.96
32875;BME280;40468;42.128;24.750;2024-02-14T07:29:04;99679.72;;;9.71;61.25
32875;BME280;40468;42.128;24.750;2024-02-14T07:30:35;99683.25;;;9.70;61.35
32875;BME280;40468;42.128;24.750;2024-02-14T07:32:07;99677.13;;;9.71;61.04
32875;BME280;40468;42.128;24.750;2024-02-14T07:33:38;99694.41;;;9.72;61.25
32875;BME280;40468;42.128;24.750;2024-02-14T07:35:10;99697.84;;;9.73;61.48
32875;BME280;40468;42.128;24.750;2024-02-14T07:36:41;99698.72;;;9.73;61.33
32875;BME280;40468;42.128;24.750;2024-02-14T07:38:16;99697.00;;;9.72;61.46
32875;BME280;40468;42.128;24.750;2024-02-14T07:39:48;99697.81;;;9.74;61.22
32875;BME280;40468;42.128;24.750;2024-02-14T07:41:19;99695.19;;;9.74;61.50
32875;BME280;40468;42.128;24.750;2024-02-14T07:42:50;99702.16;;;9.74;61.65
32875;BME280;40468;42.128;24.750;2024-02-14T07:44:23;99709.03;;;9.75;61.44
32875;BME280;40468;42.128;24.750;2024-02-14T07:45:54;99697.09;;;9.71;61.64
32875;BME280;40468;42.128;24.750;2024-02-14T07:47:26;99706.53;;;9.73;61.33
32875;BME280;40468;42.128;24.750;2024-02-14T07:48:57;99698.84;;;9.70;61.59
32875;BME280;40468;42.128;24.750;2024-02-14T07:50:28;99709.03;;;9.75;61.52
32875;BME280;40468;42.128;24.750;2024-02-14T07:51:59;99709.88;;;9.75;61.51
32875;BME280;40468;42.128;24.750;2024-02-14T07:53:31;99704.69;;;9.75;61.43
32875;BME280;40468;42.128;24.750;2024-02-14T07:55:02;99709.84;;;9.77;61.21
32875;BME280;40468;42.128;24.750;2024-02-14T07:56:34;99703.72;;;9.78;61.21
32875;BME280;40468;42.128;24.750;2024-02-14T07:58:05;99611.16;;;9.14;61.44
32875;BME280;40468;42.128;24.750;2024-02-14T07:59:39;99712.34;;;9.78;61.18
32875;BME280;40468;42.128;24.750;2024-02-14T08:01:09;99708.06;;;9.77;61.08
32875;BME280;40468;42.128;24.750;2024-02-14T08:02:41;99725.34;;;9.78;61.33
32875;BME280;40468;42.128;24.750;2024-02-14T08:04:12;99713.28;;;9.77;61.22
32875;BME280;40468;42.128;24.750;2024-02-14T08:05:44;99722.00;;;9.76;60.91